Time;durP1;ratioP1;P1;durP2;ratioP2;P2;SDS_P1;SDS_P2;PMS_P1;PMS_P2;Temp;Humidity;BMP_temperature;BMP_pressure;BME280_temperature;BME280_humidity;BME280_pressure;Samples;Min_cycle;Max_cycle;Signal;HPM_P1;HPM_P2
2022/04/24 00:01:44;;;;;;;7.20;4.70;;;11.30;1.00;;;;;;5094060;28;20510;-50
2022/04/24 00:04:10;;;;;;;6.13;4.67;;;11.30;1.00;;;;;;5092565;28;20538;-51
2022/04/24 00:06:41;;;;;;;8.73;5.43;;;11.40;1.00;;;;;;5089653;28;20481;-53
2022/04/24 00:09:08;;;;;;;7.53;5.83;;;11.50;1.00;;;;;;5093072;28;20442;-50
2022/04/24 00:11:35;;;;;;;11.40;5.87;;;11.60;1.00;;;;;;5092193;28;20551;-56
2022/04/24 00:14:10;;;;;;;9.83;5.07;;;11.60;1.00;;;;;;5093590;28;20479;-56
2022/04/24 00:16:38;;;;;;;8.63;5.23;;;11.60;1.00;;;;;;5093875;28;20510;-55
2022/04/24 00:19:06;;;;;;;6.37;3.90;;;11.70;1.00;;;;;;5093317;28;20444;-55
2022/04/24 00:21:37;;;;;;;5.67;4.53;;;11.70;1.00;;;;;;5093482;28;20552;-56
2022/04/24 00:24:06;;;;;;;4.33;3.20;;;11.70;1.00;;;;;;5092942;28;20532;-56
2022/04/24 00:26:35;;;;;;;6.23;3.47;;;11.60;1.00;;;;;;5092525;28;20454;-56
2022/04/24 00:29:02;;;;;;;9.37;4.67;;;11.60;1.00;;;;;;5094980;28;20820;-55
2022/04/24 00:31:28;;;;;;;6.73;4.47;;;11.60;1.00;;;;;;5092020;28;20492;-55
2022/04/24 00:33:58;;;;;;;6.53;4.70;;;11.70;1.00;;;;;;5092195;28;20473;-55
2022/04/24 00:36:25;;;;;;;7.33;4.53;;;11.80;1.00;;;;;;5093918;28;20453;-55
2022/04/24 00:38:52;;;;;;;6.10;4.57;;;11.80;1.00;;;;;;5092469;28;20484;-56
2022/04/24 00:41:19;;;;;;;7.50;3.93;;;12.00;1.00;;;;;;5091084;28;20814;-53
2022/04/24 00:43:52;;;;;;;4.17;2.53;;;12.00;1.00;;;;;;5093492;28;20484;-53
2022/04/24 00:46:29;;;;;;;9.27;3.17;;;12.00;1.00;;;;;;5093515;28;20492;-57
2022/04/24 00:48:57;;;;;;;13.73;5.77;;;12.00;1.00;;;;;;5093368;28;20588;-54
2022/04/24 00:51:24;;;;;;;9.97;5.07;;;12.00;1.00;;;;;;5097874;28;20558;-55
2022/04/24 00:53:52;;;;;;;6.43;4.97;;;12.00;1.00;;;;;;5098133;28;20475;-55
2022/04/24 00:56:19;;;;;;;7.90;4.20;;;11.90;1.00;;;;;;5096519;28;20547;-55
2022/04/24 00:58:47;;;;;;;8.10;3.80;;;11.90;1.00;;;;;;5096955;28;20553;-52
2022/04/24 01:01:14;;;;;;;6.07;5.00;;;12.00;1.00;;;;;;5096551;28;20548;-55
2022/04/24 01:03:43;;;;;;;8.77;6.17;;;12.00;1.00;;;;;;5094220;28;20798;-56
2022/04/24 01:06:12;;;;;;;5.70;3.70;;;11.90;1.00;;;;;;5096018;28;20943;-54
2022/04/24 01:08:39;;;;;;;7.20;4.57;;;11.90;1.00;;;;;;5097179;28;20485;-56
2022/04/24 01:11:06;;;;;;;5.60;3.17;;;11.90;1.00;;;;;;5063718;28;20448;-56
2022/04/24 01:13:32;;;;;;;4.37;3.10;;;11.80;1.00;;;;;;5094231;28;20548;-54
2022/04/24 01:15:59;;;;;;;5.53;4.50;;;11.80;1.00;;;;;;5071124;28;20630;-56
2022/04/24 01:18:27;;;;;;;6.77;3.53;;;11.80;1.00;;;;;;5097209;28;20496;-55
2022/04/24 01:20:55;;;;;;;6.20;3.80;;;11.90;1.00;;;;;;5097746;28;20537;-55
2022/04/24 01:23:24;;;;;;;8.00;4.70;;;12.00;1.00;;;;;;5095446;28;20617;-52
2022/04/24 01:25:50;;;;;;;5.13;3.63;;;11.90;1.00;;;;;;5097802;28;20521;-55
2022/04/24 01:28:18;;;;;;;5.97;4.63;;;11.80;1.00;;;;;;5095325;28;20587;-53
2022/04/24 01:30:45;;;;;;;7.63;4.20;;;11.80;1.00;;;;;;5069545;28;20459;-51
2022/04/24 01:33:12;;;;;;;8.13;4.63;;;11.70;1.00;;;;;;5096202;28;20508;-54
2022/04/24 01:35:40;;;;;;;6.60;4.17;;;11.70;1.00;;;;;;5096484;28;20456;-55
2022/04/24 01:38:08;;;;;;;6.83;2.73;;;11.70;1.00;;;;;;5096097;28;20552;-55
2022/04/24 01:40:35;;;;;;;5.47;3.70;;;11.70;1.00;;;;;;5096381;28;20491;-54
2022/04/24 01:43:02;;;;;;;6.10;2.77;;;11.70;1.00;;;;;;5096993;28;20532;-56
2022/04/24 01:45:32;;;;;;;5.90;3.27;;;11.70;1.00;;;;;;5094810;28;20556;-51
2022/04/24 01:47:59;;;;;;;6.60;3.57;;;11.80;1.00;;;;;;5097252;28;20560;-56
2022/04/24 01:50:25;;;;;;;7.63;3.37;;;11.80;1.00;;;;;;5097412;28;20548;-54
2022/04/24 01:52:52;;;;;;;5.77;2.40;;;11.70;1.00;;;;;;5097821;28;20528;-53
2022/04/24 01:55:21;;;;;;;10.07;4.17;;;11.60;1.00;;;;;;5095269;28;20556;-56
2022/04/24 01:57:47;;;;;;;5.47;3.33;;;11.70;1.00;;;;;;5097377;28;20528;-56
2022/04/24 02:00:15;;;;;;;5.33;3.73;;;11.70;1.00;;;;;;5096735;28;20548;-55
2022/04/24 02:02:42;;;;;;;5.50;3.70;;;11.80;1.00;;;;;;5090972;28;20544;-56
2022/04/24 02:05:09;;;;;;;7.37;3.70;;;11.60;1.00;;;;;;5097268;28;20510;-56
2022/04/24 02:07:36;;;;;;;8.23;4.47;;;11.40;1.00;;;;;;5096493;28;20568;-55
2022/04/24 02:10:03;;;;;;;7.53;3.73;;;11.20;4.20;;;;;;5096599;28;20462;-59
2022/04/24 02:12:32;;;;;;;8.80;5.00;;;11.20;13.10;;;;;;5080631;28;20452;-55
2022/04/24 02:14:59;;;;;;;6.00;3.30;;;11.10;21.30;;;;;;5095230;28;20507;-52
2022/04/24 02:17:26;;;;;;;4.33;3.30;;;11.10;41.30;;;;;;5097281;28;20529;-51
2022/04/24 02:19:53;;;;;;;6.30;3.80;;;11.10;40.90;;;;;;5094394;28;20446;-52
2022/04/24 02:22:21;;;;;;;6.83;4.30;;;11.30;16.90;;;;;;5096029;28;20450;-55
2022/04/24 02:24:47;;;;;;;8.33;4.10;;;11.40;10.90;;;;;;5092639;28;20883;-54
2022/04/24 02:27:14;;;;;;;6.60;3.63;;;11.40;10.80;;;;;;5094537;28;20452;-54
2022/04/24 02:29:42;;;;;;;7.30;4.27;;;11.30;18.40;;;;;;5094328;28;20456;-55
2022/04/24 02:32:12;;;;;;;9.27;5.50;;;11.30;26.70;;;;;;5096129;28;20910;-55
2022/04/24 02:34:43;;;;;;;7.23;4.17;;;11.40;31.10;;;;;;5096939;28;20445;-55
2022/04/24 02:37:10;;;;;;;5.83;4.23;;;11.40;36.40;;;;;;5096596;28;20532;-54
2022/04/24 02:39:36;;;;;;;10.77;4.07;;;11.30;65.30;;;;;;5097384;28;20502;-55
2022/04/24 02:42:04;;;;;;;8.27;4.47;;;11.30;77.50;;;;;;5095297;28;20576;-56
2022/04/24 02:44:31;;;;;;;9.73;5.03;;;11.30;97.40;;;;;;5095312;28;20529;-52
2022/04/24 02:46:59;;;;;;;10.03;4.10;;;11.30;99.90;;;;;;5095582;28;20454;-55
2022/04/24 02:49:28;;;;;;;7.70;4.70;;;11.30;99.90;;;;;;5095983;28;20868;-55
2022/04/24 02:51:54;;;;;;;6.90;3.43;;;11.20;99.90;;;;;;5092336;28;20671;-54
2022/04/24 02:54:21;;;;;;;7.50;3.83;;;11.10;99.90;;;;;;5096035;28;20813;-53
2022/04/24 02:56:48;;;;;;;6.97;3.60;;;11.10;99.90;;;;;;5092564;28;20828;-52
2022/04/24 02:59:16;;;;;;;6.67;4.40;;;11.10;99.90;;;;;;5094925;28;20830;-53
2022/04/24 03:01:44;;;;;;;7.68;4.70;;;11.10;99.90;;;;;;5093910;28;20506;-53
2022/04/24 03:04:12;;;;;;;7.53;4.37;;;11.00;99.90;;;;;;5096316;28;20204;-55
2022/04/24 03:06:39;;;;;;;8.50;4.17;;;10.90;99.90;;;;;;5096460;28;20972;-55
2022/04/24 03:09:06;;;;;;;8.37;5.03;;;10.90;99.90;;;;;;5095497;28;20488;-55
2022/04/24 03:11:33;;;;;;;7.67;4.63;;;10.90;99.90;;;;;;5095755;28;20544;-55
2022/04/24 03:14:00;;;;;;;8.40;3.73;;;11.00;99.90;;;;;;5095197;28;20537;-56
2022/04/24 03:16:27;;;;;;;10.00;5.77;;;10.90;99.90;;;;;;5095583;28;20488;-55
2022/04/24 03:18:54;;;;;;;6.67;4.43;;;10.90;99.90;;;;;;5093788;28;20485;-56
2022/04/24 03:21:22;;;;;;;8.17;4.17;;;11.00;99.90;;;;;;5095863;28;20441;-54
2022/04/24 03:23:49;;;;;;;7.57;4.07;;;11.00;99.90;;;;;;5095890;28;20590;-53
2022/04/24 03:26:18;;;;;;;8.47;4.07;;;11.00;99.90;;;;;;5096041;28;20948;-56
2022/04/24 03:28:45;;;;;;;8.77;4.30;;;10.90;99.90;;;;;;5093284;28;20575;-56
2022/04/24 03:31:13;;;;;;;10.80;4.87;;;10.80;99.90;;;;;;5095596;28;20449;-55
2022/04/24 03:33:40;;;;;;;6.87;4.50;;;10.70;99.90;;;;;;5096337;28;20449;-54
2022/04/24 03:36:09;;;;;;;6.97;4.03;;;10.70;99.90;;;;;;5095231;28;20537;-56
2022/04/24 03:38:38;;;;;;;6.97;4.47;;;10.70;99.90;;;;;;5093399;28;20782;-52
2022/04/24 03:41:08;;;;;;;6.40;4.00;;;10.70;99.90;;;;;;5081090;28;20564;-51
2022/04/24 03:43:35;;;;;;;8.10;3.83;;;10.70;99.90;;;;;;5094778;28;20468;-55
2022/04/24 03:46:02;;;;;;;9.07;4.17;;;10.70;99.90;;;;;;5094748;28;20540;-53
2022/04/24 03:48:29;;;;;;;7.20;4.50;;;10.70;99.90;;;;;;5095592;28;20709;-56
2022/04/24 03:51:43;;;;;;;7.23;4.47;;;10.70;99.90;;;;;;4955715;28;20954;-52
2022/04/24 03:54:15;;;;;;;7.27;5.37;;;10.70;99.90;;;;;;5093225;28;20541;-53
2022/04/24 03:56:42;;;;;;;8.57;5.13;;;10.80;99.90;;;;;;5096144;28;20473;-53
2022/04/24 03:59:09;;;;;;;11.23;5.60;;;10.80;99.90;;;;;;5093098;28;20540;-52
2022/04/24 04:01:36;;;;;;;7.30;3.80;;;10.90;99.90;;;;;;5095658;28;20742;-56
2022/04/24 04:04:03;;;;;;;8.67;4.83;;;11.00;99.90;;;;;;5094527;28;20468;-55
2022/04/24 04:06:30;;;;;;;6.90;4.67;;;11.00;99.90;;;;;;5095011;28;20462;-55
2022/04/24 04:08:57;;;;;;;8.13;5.17;;;11.10;99.90;;;;;;5095195;28;20524;-55
2022/04/24 04:11:26;;;;;;;9.60;5.27;;;11.10;99.90;;;;;;5095745;28;20536;-55
2022/04/24 04:13:55;;;;;;;7.50;4.47;;;11.00;99.90;;;;;;5093246;28;20519;-54
2022/04/24 04:16:22;;;;;;;10.90;5.10;;;10.90;99.90;;;;;;5095429;28;20461;-53
2022/04/24 04:18:49;;;;;;;11.70;7.80;;;10.80;99.90;;;;;;5093842;28;20445;-55
2022/04/24 04:21:16;;;;;;;10.10;4.43;;;10.90;99.90;;;;;;5094806;28;20816;-54
2022/04/24 04:23:43;;;;;;;5.93;3.23;;;11.00;99.90;;;;;;5094938;28;20555;-55
2022/04/24 04:26:10;;;;;;;9.80;5.10;;;11.00;99.90;;;;;;5099654;28;20531;-52
2022/04/24 04:28:39;;;;;;;6.40;3.93;;;10.90;99.90;;;;;;5098874;28;20576;-53
2022/04/24 04:31:06;;;;;;;10.07;5.70;;;10.90;99.90;;;;;;5098557;28;20888;-55
2022/04/24 04:33:33;;;;;;;7.73;4.57;;;10.80;99.90;;;;;;5099595;28;20560;-49
2022/04/24 04:36:02;;;;;;;8.77;4.93;;;10.60;99.90;;;;;;5097809;28;20536;-51
2022/04/24 04:38:29;;;;;;;8.87;4.80;;;10.50;99.90;;;;;;5099437;28;20441;-49
2022/04/24 04:40:56;;;;;;;10.50;4.87;;;10.30;99.90;;;;;;5096925;28;20520;-50
2022/04/24 04:43:22;;;;;;;11.33;6.30;;;10.10;99.90;;;;;;5097405;28;20477;-50
2022/04/24 04:45:51;;;;;;;4.33;1.30;;;10.00;99.90;;;;;;5097859;28;20764;-51
2022/04/24 04:48:18;;;;;;;2.00;1.30;;;9.90;99.90;;;;;;5099280;28;20537;-52
2022/04/24 04:50:45;;;;;;;1.33;0.53;;;10.00;99.90;;;;;;5097548;28;20495;-52
2022/04/24 04:53:12;;;;;;;1.13;0.63;;;9.70;99.90;;;;;;5099329;28;20736;-53
2022/04/24 04:55:39;;;;;;;0.70;0.30;;;9.60;99.90;;;;;;5080996;28;20479;-50
2022/04/24 04:58:06;;;;;;;0.73;0.40;;;9.40;99.90;;;;;;5098498;28;20453;-50
2022/04/24 05:00:33;;;;;;;0.40;0.20;;;9.30;99.90;;;;;;5099496;28;20816;-57
2022/04/24 05:03:01;;;;;;;0.40;0.20;;;9.50;99.90;;;;;;5097782;28;20503;-53
2022/04/24 05:05:28;;;;;;;0.40;0.13;;;9.30;99.90;;;;;;5021256;28;20979;-54
2022/04/24 05:07:55;;;;;;;0.40;0.13;;;9.20;99.90;;;;;;5080820;28;20515;-56
2022/04/24 05:10:22;;;;;;;0.30;0.10;;;9.00;99.90;;;;;;5098766;28;20477;-52
2022/04/24 05:12:49;;;;;;;0.20;0.10;;;9.10;99.90;;;;;;5098373;28;20940;-52
2022/04/24 05:15:16;;;;;;;0.97;0.17;;;8.90;99.90;;;;;;4879082;28;20449;-55
2022/04/24 05:17:45;;;;;;;0.30;0.10;;;8.90;99.90;;;;;;5097257;28;20457;-49
2022/04/24 05:20:13;;;;;;;0.30;0.10;;;8.90;99.90;;;;;;5098594;28;20697;-54
2022/04/24 05:22:42;;;;;;;0.30;0.10;;;8.80;99.90;;;;;;5098542;28;20533;-48
2022/04/24 05:25:10;;;;;;;0.20;0.10;;;8.80;99.90;;;;;;5098519;28;20445;-54
2022/04/24 05:27:38;;;;;;;0.30;0.10;;;9.00;99.90;;;;;;5098090;28;20437;-49
2022/04/24 05:30:07;;;;;;;0.40;0.10;;;8.90;99.90;;;;;;5095963;28;20529;-49
2022/04/24 05:32:40;;;;;;;0.30;0.10;;;8.70;99.90;;;;;;5098525;28;20448;-54
2022/04/24 05:35:08;;;;;;;0.30;0.10;;;8.70;99.90;;;;;;5096296;28;20454;-54
2022/04/24 05:37:37;;;;;;;0.30;0.10;;;8.70;99.90;;;;;;5098579;28;20536;-54
2022/04/24 05:40:05;;;;;;;0.20;0.10;;;8.60;99.90;;;;;;5096559;28;20520;-56
2022/04/24 05:42:32;;;;;;;0.20;0.10;;;8.60;99.90;;;;;;5098282;28;20854;-58
2022/04/24 05:45:04;;;;;;;0.40;0.10;;;8.70;99.90;;;;;;5094772;28;20544;-58
2022/04/24 05:47:31;;;;;;;0.40;0.10;;;8.70;99.90;;;;;;5097437;28;20456;-55
2022/04/24 05:49:58;;;;;;;2.60;0.20;;;8.60;99.90;;;;;;5096576;28;20576;-54
2022/04/24 05:52:27;;;;;;;0.30;0.10;;;8.50;99.90;;;;;;5097827;28;20544;-54
2022/04/24 05:54:57;;;;;;;0.20;0.10;;;8.50;99.90;;;;;;5096751;28;20544;-54
2022/04/24 05:57:24;;;;;;;0.20;0.10;;;8.60;99.90;;;;;;5098106;28;20503;-53
2022/04/24 05:59:51;;;;;;;0.20;0.00;;;8.60;99.90;;;;;;5096233;28;20522;-56
2022/04/24 06:02:18;;;;;;;0.30;0.10;;;8.60;99.90;;;;;;5097591;28;20932;-55
2022/04/24 06:04:44;;;;;;;0.20;0.10;;;8.60;99.90;;;;;;5097177;28;20521;-58
2022/04/24 06:07:11;;;;;;;0.97;0.10;;;8.80;99.90;;;;;;5096383;28;20485;-58
2022/04/24 06:09:39;;;;;;;0.20;0.10;;;8.90;99.90;;;;;;5094427;28;20580;-49
2022/04/24 06:12:11;;;;;;;0.20;0.10;;;8.80;99.90;;;;;;5094955;28;20944;-53
2022/04/24 06:14:38;;;;;;;0.20;0.10;;;8.70;99.90;;;;;;5095018;28;20552;-54
2022/04/24 06:17:05;;;;;;;0.30;0.10;;;8.80;99.90;;;;;;5094529;28;20556;-54
2022/04/24 06:19:32;;;;;;;1.10;0.10;;;8.90;99.90;;;;;;5095976;28;20438;-52
2022/04/24 06:21:59;;;;;;;0.70;0.10;;;8.90;99.90;;;;;;5082501;28;20541;-52
2022/04/24 06:24:26;;;;;;;0.30;0.10;;;8.70;99.90;;;;;;5095680;28;21009;-52
2022/04/24 06:26:53;;;;;;;0.83;0.10;;;8.70;99.90;;;;;;5095310;28;20551;-52
2022/04/24 06:29:21;;;;;;;0.20;0.00;;;8.80;99.90;;;;;;5096200;28;20580;-53
2022/04/24 06:35:13;;;;;;;0.30;0.10;;;8.70;99.90;;;;;;5096828;28;20397;-50
2022/04/24 06:37:40;;;;;;;0.20;0.10;;;8.80;99.90;;;;;;5096610;28;20484;-58
2022/04/24 06:40:09;;;;;;;0.20;0.10;;;8.70;99.90;;;;;;5093435;28;20773;-54
2022/04/24 06:42:47;;;;;;;0.20;0.10;;;8.80;99.90;;;;;;5062144;28;20537;-55
2022/04/24 06:45:15;;;;;;;0.40;0.10;;;8.80;99.90;;;;;;5095706;28;20892;-55
2022/04/24 06:47:42;;;;;;;0.27;0.10;;;8.90;99.90;;;;;;5095957;28;20532;-55
2022/04/24 06:50:10;;;;;;;0.20;0.10;;;9.00;99.90;;;;;;5093934;28;20580;-56
2022/04/24 06:52:37;;;;;;;0.30;0.07;;;8.90;99.90;;;;;;5096488;28;20528;-55
2022/04/24 06:55:06;;;;;;;0.30;0.10;;;9.00;99.90;;;;;;5094591;28;20601;-56
2022/04/24 06:57:33;;;;;;;0.20;0.10;;;9.00;99.90;;;;;;5071123;28;21012;-53
2022/04/24 07:00:04;;;;;;;0.27;0.10;;;8.90;99.90;;;;;;5084438;28;20449;-54
2022/04/24 07:02:34;;;;;;;0.20;0.10;;;9.00;99.90;;;;;;5094189;28;20460;-52
2022/04/24 07:05:03;;;;;;;0.30;0.10;;;8.90;99.90;;;;;;5094517;28;20450;-53
2022/04/24 07:07:30;;;;;;;0.30;0.10;;;8.80;99.90;;;;;;5094701;28;20556;-54
2022/04/24 07:09:57;;;;;;;0.20;0.07;;;8.90;99.90;;;;;;5092522;28;20575;-55
2022/04/24 07:12:24;;;;;;;0.20;0.00;;;8.80;99.90;;;;;;5094004;28;20524;-53
2022/04/24 07:14:51;;;;;;;0.30;0.10;;;8.80;99.90;;;;;;5092775;28;20552;-55
2022/04/24 07:17:18;;;;;;;0.60;0.10;;;8.80;99.90;;;;;;5095317;28;20818;-52
2022/04/24 07:23:27;;;;;;;0.30;0.10;;;8.90;99.90;;;;;;5087025;28;20405;-50
2022/04/24 07:25:56;;;;;;;0.30;0.10;;;9.00;99.90;;;;;;5096461;28;20512;-51
2022/04/24 07:28:23;;;;;;;0.20;0.10;;;8.90;99.90;;;;;;5094997;28;20924;-50
2022/04/24 07:30:51;;;;;;;0.30;0.10;;;8.90;99.90;;;;;;5093656;28;21024;-52
2022/04/24 07:33:18;;;;;;;0.20;0.10;;;8.90;99.90;;;;;;5095608;28;20818;-49
2022/04/24 07:35:45;;;;;;;0.47;0.10;;;8.90;99.90;;;;;;5096273;28;20528;-50
2022/04/24 07:38:12;;;;;;;0.30;0.10;;;8.90;99.90;;;;;;5093532;28;20548;-45
2022/04/24 07:40:41;;;;;;;0.30;0.10;;;9.00;99.90;;;;;;5092551;28;20485;-51
2022/04/24 07:43:09;;;;;;;0.30;0.10;;;9.00;99.90;;;;;;5094647;28;20453;-47
2022/04/24 07:45:37;;;;;;;0.30;0.10;;;9.00;99.90;;;;;;5092913;28;20885;-52
2022/04/24 07:48:06;;;;;;;0.20;0.10;;;8.90;99.90;;;;;;5092159;28;20552;-51
2022/04/24 07:50:35;;;;;;;0.30;0.10;;;9.00;99.90;;;;;;5095189;28;20587;-46
2022/04/24 07:53:03;;;;;;;0.40;0.10;;;9.10;99.90;;;;;;5095025;28;20461;-52
2022/04/24 07:55:30;;;;;;;0.47;0.10;;;9.20;99.90;;;;;;5095809;28;20449;-52
2022/04/24 07:58:02;;;;;;;0.50;0.10;;;9.10;99.90;;;;;;5092913;28;20507;-46
2022/04/24 08:00:30;;;;;;;0.30;0.10;;;9.10;99.90;;;;;;5099721;28;20800;-52
2022/04/24 08:03:02;;;;;;;0.40;0.10;;;9.20;99.90;;;;;;5096302;28;20553;-51
2022/04/24 08:05:32;;;;;;;0.40;0.10;;;9.30;99.90;;;;;;5099700;28;20442;-50
2022/04/24 08:08:04;;;;;;;0.30;0.10;;;9.40;99.90;;;;;;5096911;28;20461;-54
2022/04/24 08:10:32;;;;;;;0.20;0.10;;;9.50;99.90;;;;;;5097441;28;20580;-52
2022/04/24 08:13:05;;;;;;;0.20;0.10;;;9.40;99.90;;;;;;5097423;28;20548;-50
2022/04/24 08:15:34;;;;;;;0.30;0.10;;;9.40;99.90;;;;;;5098586;28;20472;-51
2022/04/24 08:18:04;;;;;;;0.40;0.10;;;9.40;99.90;;;;;;5098381;28;20456;-51
2022/04/24 08:20:34;;;;;;;0.30;0.10;;;9.40;99.90;;;;;;5094853;28;20747;-49
2022/04/24 08:23:03;;;;;;;0.20;0.00;;;9.40;99.90;;;;;;5096984;28;21559;-52
2022/04/24 08:25:34;;;;;;;0.30;0.10;;;9.30;99.90;;;;;;5098201;28;20448;-52
2022/04/24 08:28:06;;;;;;;0.30;0.10;;;9.30;99.90;;;;;;5097315;28;20548;-49
2022/04/24 08:30:37;;;;;;;0.30;0.10;;;9.40;99.90;;;;;;5097901;28;20547;-48
2022/04/24 08:33:06;;;;;;;0.30;0.10;;;9.20;99.90;;;;;;5099175;28;20762;-49
2022/04/24 08:35:34;;;;;;;0.33;0.10;;;9.10;99.90;;;;;;5099841;28;20437;-52
2022/04/24 08:38:04;;;;;;;0.60;0.10;;;9.00;99.90;;;;;;5097905;28;20804;-51
2022/04/24 08:40:34;;;;;;;0.30;0.10;;;9.00;99.90;;;;;;5097832;28;20507;-52
2022/04/24 08:43:06;;;;;;;0.37;0.10;;;9.00;99.90;;;;;;5092872;28;20905;-49
2022/04/24 08:46:01;;;;;;;0.30;0.20;;;9.00;99.90;;;;;;5099100;28;20506;-51
2022/04/24 08:48:38;;;;;;;0.40;0.20;;;8.90;99.90;;;;;;5095472;28;20485;-50
2022/04/24 08:51:06;;;;;;;0.60;0.20;;;8.90;99.90;;;;;;5097933;28;20563;-48
2022/04/24 08:53:34;;;;;;;0.40;0.20;;;9.00;99.90;;;;;;5095931;28;20485;-50
2022/04/24 08:56:09;;;;;;;0.40;0.10;;;9.00;99.90;;;;;;5097582;28;20896;-48
2022/04/24 08:58:36;;;;;;;0.30;0.10;;;9.00;99.90;;;;;;5095291;28;20493;-49
2022/04/24 09:01:08;;;;;;;0.40;0.13;;;9.00;99.90;;;;;;5098624;28;20481;-48
2022/04/24 09:03:36;;;;;;;0.77;0.10;;;9.00;99.90;;;;;;5098817;28;20477;-51
2022/04/24 09:06:06;;;;;;;0.37;0.20;;;9.00;99.90;;;;;;5098100;28;20449;-50
2022/04/24 09:08:38;;;;;;;0.30;0.13;;;9.10;99.90;;;;;;5097596;28;20457;-46
2022/04/24 09:11:19;;;;;;;0.40;0.10;;;9.30;99.90;;;;;;5097714;28;20955;-48
2022/04/24 09:16:46;;;;;;;0.30;0.10;;;9.30;99.90;;;;;;5084512;28;20422;-47
2022/04/24 09:19:17;;;;;;;0.30;0.10;;;9.40;99.90;;;;;;5075740;28;20537;-49
2022/04/24 09:21:47;;;;;;;0.30;0.10;;;9.40;99.90;;;;;;5097224;28;20442;-49
2022/04/24 09:24:15;;;;;;;0.40;0.20;;;9.40;99.90;;;;;;5089897;28;20857;-53
2022/04/24 09:26:53;;;;;;;0.40;0.10;;;9.40;99.90;;;;;;5096740;28;20605;-53
2022/04/24 09:29:21;;;;;;;0.30;0.10;;;9.40;99.90;;;;;;5093961;28;20493;-52
2022/04/24 09:31:53;;;;;;;0.30;0.10;;;9.50;99.90;;;;;;5093856;28;20481;-52
2022/04/24 09:34:31;;;;;;;0.30;0.10;;;9.40;99.90;;;;;;5084171;28;20457;-53
2022/04/24 09:37:11;;;;;;;0.40;0.10;;;9.30;99.90;;;;;;5097417;28;20473;-51
2022/04/24 09:39:43;;;;;;;0.40;0.20;;;9.30;99.90;;;;;;5097283;28;20453;-49
2022/04/24 09:42:14;;;;;;;0.30;0.10;;;9.30;99.90;;;;;;5094975;28;20473;-51
2022/04/24 09:44:45;;;;;;;0.40;0.10;;;9.50;99.90;;;;;;5094251;28;20841;-51
2022/04/24 09:47:27;;;;;;;0.70;0.20;;;9.50;99.90;;;;;;5096117;28;20795;-51
2022/04/24 09:50:30;;;;;;;0.70;0.20;;;9.60;99.90;;;;;;5091836;28;20489;-51
2022/04/24 09:57:10;;;;;;;0.40;0.20;;;9.60;99.90;;;;;;5093639;28;20408;-49
2022/04/24 09:59:45;;;;;;;0.30;0.20;;;9.60;99.90;;;;;;5102028;28;20454;-49
2022/04/24 10:02:25;;;;;;;0.50;0.20;;;9.50;99.90;;;;;;5115103;28;20773;-49
2022/04/24 10:04:58;;;;;;;0.40;0.17;;;9.50;99.90;;;;;;5112639;28;20972;-51
2022/04/24 10:08:02;;;;;;;0.40;0.20;;;9.50;99.90;;;;;;5105846;28;20446;-48
2022/04/24 10:10:31;;;;;;;1.13;0.30;;;9.70;99.90;;;;;;5114021;28;20507;-52
2022/04/24 10:13:14;;;;;;;1.00;0.20;;;9.70;99.90;;;;;;5102635;28;20474;-51
2022/04/24 10:16:18;;;;;;;0.40;0.20;;;9.80;99.90;;;;;;5115108;28;20488;-53
2022/04/24 10:19:02;;;;;;;0.70;0.30;;;9.90;99.90;;;;;;5103863;28;20460;-48
2022/04/24 10:22:00;;;;;;;0.47;0.20;;;9.80;99.90;;;;;;5093703;28;20456;-49
2022/04/24 10:27:42;;;;;;;0.30;0.20;;;9.80;99.90;;;;;;5095867;28;21018;-49
2022/04/24 10:30:14;;;;;;;0.30;0.20;;;9.90;99.90;;;;;;5106397;28;20568;-51
2022/04/24 10:32:46;;;;;;;0.47;0.20;;;9.70;99.90;;;;;;5115418;28;20488;-50
2022/04/24 10:35:26;;;;;;;0.47;0.20;;;9.60;99.90;;;;;;5108440;28;20488;-46
2022/04/24 10:37:53;;;;;;;0.30;0.20;;;9.60;99.90;;;;;;5096486;28;20471;-47
2022/04/24 10:40:23;;;;;;;0.40;0.20;;;9.60;99.90;;;;;;5095098;28;20805;-52
2022/04/24 10:43:08;;;;;;;0.80;0.20;;;9.60;99.90;;;;;;5096486;28;20522;-54
2022/04/24 10:45:47;;;;;;;1.00;0.30;;;9.70;99.90;;;;;;5095447;28;20464;-51
2022/04/24 10:48:31;;;;;;;0.40;0.23;;;9.80;99.90;;;;;;5100133;28;20469;-52
2022/04/24 10:51:11;;;;;;;1.03;0.30;;;9.80;99.90;;;;;;5115809;28;20484;-52
2022/04/24 10:54:00;;;;;;;0.57;0.33;;;9.70;99.90;;;;;;5110111;28;20477;-53
2022/04/24 10:59:23;;;;;;;0.50;0.33;;;9.90;99.90;;;;;;5077599;28;20461;-49
2022/04/24 11:01:55;;;;;;;2.43;0.40;;;10.00;99.90;;;;;;5110985;28;20587;-49
2022/04/24 11:04:28;;;;;;;0.30;0.20;;;10.00;99.90;;;;;;5102874;28;20526;-51
2022/04/24 11:06:58;;;;;;;0.50;0.30;;;9.90;99.90;;;;;;5110042;28;20448;-53
2022/04/24 11:13:01;;;;;;;0.60;0.20;;;9.70;99.90;;;;;;5093470;28;20893;-52
2022/04/24 11:15:34;;;;;;;0.60;0.30;;;9.70;99.90;;;;;;5103319;28;20471;-55
2022/04/24 11:21:29;;;;;;;0.60;0.30;;;9.70;99.90;;;;;;5096602;28;20885;-52
2022/04/24 11:24:11;;;;;;;0.37;0.20;;;9.90;99.90;;;;;;5103480;28;20447;-53
2022/04/24 11:26:38;;;;;;;2.40;0.37;;;10.00;99.90;;;;;;5103452;28;20464;-54
2022/04/24 11:31:54;;;;;;;0.50;0.20;;;10.10;99.90;;;;;;5094694;28;20538;-51
2022/04/24 11:34:31;;;;;;;0.40;0.20;;;9.90;99.90;;;;;;5110932;28;20464;-51
2022/04/24 11:37:01;;;;;;;0.30;0.10;;;10.10;99.90;;;;;;5115346;28;20937;-53
2022/04/24 11:39:52;;;;;;;0.40;0.20;;;10.00;99.90;;;;;;5095359;28;20533;-53
2022/04/24 11:42:28;;;;;;;0.40;0.20;;;10.10;99.90;;;;;;5081643;28;20559;-51
2022/04/24 11:50:57;;;;;;;0.60;0.30;;;10.30;99.90;;;;;;5032558;28;20542;-51
2022/04/24 11:53:36;;;;;;;0.90;0.40;;;10.50;99.90;;;;;;5057760;28;20564;-49
2022/04/24 11:56:20;;;;;;;0.50;0.20;;;10.50;99.90;;;;;;5100500;28;20483;-52
2022/04/24 11:58:49;;;;;;;0.30;0.20;;;10.50;99.90;;;;;;5095561;28;20441;-54
2022/04/24 12:01:24;;;;;;;0.47;0.20;;;10.40;99.90;;;;;;5052915;28;20446;-53
2022/04/24 12:03:55;;;;;;;0.30;0.20;;;10.30;99.90;;;;;;5094910;28;20449;-48
2022/04/24 12:06:35;;;;;;;0.30;0.10;;;10.20;99.90;;;;;;5087498;28;20472;-50
2022/04/24 12:09:23;;;;;;;0.70;0.27;;;10.20;99.90;;;;;;5101292;28;20561;-52
2022/04/24 12:11:52;;;;;;;0.40;0.20;;;10.20;99.90;;;;;;5094362;28;20527;-51
2022/04/24 12:14:29;;;;;;;1.13;0.30;;;10.30;99.90;;;;;;5098594;28;20479;-50
2022/04/24 12:17:06;;;;;;;0.50;0.20;;;10.50;99.90;;;;;;5110235;28;20488;-49
2022/04/24 12:19:46;;;;;;;0.30;0.20;;;10.50;99.90;;;;;;5113669;28;20451;-51
2022/04/24 12:22:28;;;;;;;0.70;0.40;;;10.30;99.90;;;;;;5111589;28;20483;-54
2022/04/24 12:25:07;;;;;;;0.80;0.40;;;10.40;99.90;;;;;;5114603;28;20801;-51
2022/04/24 12:27:51;;;;;;;1.00;0.30;;;10.50;99.90;;;;;;5098423;28;20540;-51
2022/04/24 12:30:25;;;;;;;0.43;0.20;;;10.60;99.90;;;;;;5093176;28;20547;-50
2022/04/24 12:33:05;;;;;;;0.40;0.20;;;10.60;99.90;;;;;;5093602;28;20556;-53
2022/04/24 12:35:37;;;;;;;0.47;0.20;;;10.70;99.90;;;;;;5094108;28;20448;-51
2022/04/24 12:38:45;;;;;;;0.70;0.30;;;10.80;99.90;;;;;;5093120;28;20814;-51
2022/04/24 12:41:28;;;;;;;0.97;0.37;;;10.70;99.90;;;;;;5094367;28;20915;-51
2022/04/24 12:43:59;;;;;;;1.23;0.50;;;10.60;99.90;;;;;;5104753;28;20441;-52
2022/04/24 12:46:37;;;;;;;0.67;0.30;;;10.80;99.90;;;;;;5109171;28;20453;-51
2022/04/24 12:49:07;;;;;;;0.60;0.20;;;10.80;99.90;;;;;;5115279;28;20509;-53
2022/04/24 12:51:38;;;;;;;0.60;0.20;;;10.90;99.90;;;;;;5116050;28;20504;-51
2022/04/24 12:54:06;;;;;;;1.63;0.23;;;10.90;99.90;;;;;;5087705;28;20456;-52
2022/04/24 12:56:45;;;;;;;0.30;0.20;;;10.90;99.90;;;;;;5119256;28;20449;-50
2022/04/24 13:02:09;;;;;;;0.50;0.20;;;10.90;99.90;;;;;;5097165;28;20882;-50
2022/04/24 13:04:46;;;;;;;0.30;0.17;;;10.80;99.90;;;;;;5093745;28;20455;-47
2022/04/24 13:07:25;;;;;;;0.60;0.30;;;10.80;99.90;;;;;;5090419;28;20440;-50
2022/04/24 13:10:03;;;;;;;0.40;0.10;;;10.80;99.90;;;;;;5100384;28;20454;-50
2022/04/24 13:12:34;;;;;;;0.63;0.10;;;10.70;99.90;;;;;;5113682;28;20939;-51
2022/04/24 13:15:09;;;;;;;1.60;0.20;;;10.80;99.90;;;;;;5069006;28;20485;-48
2022/04/24 13:20:25;;;;;;;0.50;0.20;;;10.80;99.90;;;;;;5115029;28;20448;-53
2022/04/24 13:23:08;;;;;;;1.97;0.40;;;10.80;99.90;;;;;;5097688;28;20540;-50
2022/04/24 13:28:18;;;;;;;0.50;0.23;;;10.80;99.90;;;;;;5110774;28;20447;-52
2022/04/24 13:30:51;;;;;;;0.50;0.20;;;10.90;99.90;;;;;;5099901;28;20457;-53
2022/04/24 13:33:18;;;;;;;1.23;0.30;;;10.90;99.90;;;;;;5108537;28;20488;-49
2022/04/24 13:35:47;;;;;;;0.47;0.20;;;10.90;99.90;;;;;;5097348;28;20484;-49
2022/04/24 13:38:18;;;;;;;0.60;0.33;;;10.90;99.90;;;;;;5096437;28;20880;-53
2022/04/24 13:40:55;;;;;;;1.27;0.27;;;10.90;99.90;;;;;;5114338;28;20790;-51
2022/04/24 13:43:24;;;;;;;4.57;0.70;;;10.80;99.90;;;;;;5116228;28;20460;-52
2022/04/24 13:46:10;;;;;;;0.80;0.40;;;10.80;99.90;;;;;;5116858;28;20487;-54
2022/04/24 13:48:49;;;;;;;0.80;0.40;;;10.70;99.90;;;;;;5098416;28;20485;-51
2022/04/24 13:51:24;;;;;;;0.60;0.30;;;10.70;99.90;;;;;;5111320;28;20533;-50
2022/04/24 13:53:54;;;;;;;1.10;0.30;;;10.70;99.90;;;;;;5106492;28;20456;-52
2022/04/24 13:56:32;;;;;;;0.60;0.30;;;10.80;99.90;;;;;;5106983;28;20468;-52